sensor_id;sensor_type;location;lat;lon;timestamp;P1;durP1;ratioP1;P2;durP2;ratioP2
71606;SDS011;60641;53.556;9.914;2023-01-06T00:01:31;13.60;;;4.20;;
71606;SDS011;60641;53.556;9.914;2023-01-06T00:03:58;11.20;;;3.10;;
71606;SDS011;60641;53.556;9.914;2023-01-06T00:06:25;14.20;;;5.00;;
71606;SDS011;60641;53.556;9.914;2023-01-06T00:08:56;11.10;;;4.30;;
71606;SDS011;60641;53.556;9.914;2023-01-06T00:11:24;13.20;;;5.10;;
71606;SDS011;60641;53.556;9.914;2023-01-06T00:13:51;14.60;;;4.70;;
71606;SDS011;60641;53.556;9.914;2023-01-06T00:16:18;13.60;;;4.70;;
71606;SDS011;60641;53.556;9.914;2023-01-06T00:18:45;14.50;;;4.70;;
71606;SDS011;60641;53.556;9.914;2023-01-06T00:21:12;12.80;;;4.30;;
71606;SDS011;60641;53.556;9.914;2023-01-06T00:23:39;14.10;;;4.10;;
71606;SDS011;60641;53.556;9.914;2023-01-06T00:26:06;13.40;;;4.20;;
71606;SDS011;60641;53.556;9.914;2023-01-06T00:28:34;12.50;;;4.10;;
71606;SDS011;60641;53.556;9.914;2023-01-06T00:31:04;13.70;;;4.20;;
71606;SDS011;60641;53.556;9.914;2023-01-06T00:33:32;13.00;;;4.10;;
71606;SDS011;60641;53.556;9.914;2023-01-06T00:35:58;12.70;;;4.10;;
71606;SDS011;60641;53.556;9.914;2023-01-06T00:38:25;13.70;;;3.70;;
71606;SDS011;60641;53.556;9.914;2023-01-06T00:40:51;11.70;;;3.70;;
71606;SDS011;60641;53.556;9.914;2023-01-06T00:43:18;13.10;;;3.90;;
71606;SDS011;60641;53.556;9.914;2023-01-06T00:45:44;12.30;;;4.20;;
71606;SDS011;60641;53.556;9.914;2023-01-06T00:48:11;13.10;;;4.10;;
71606;SDS011;60641;53.556;9.914;2023-01-06T00:50:38;15.00;;;3.90;;
71606;SDS011;60641;53.556;9.914;2023-01-06T00:53:04;15.40;;;4.10;;
71606;SDS011;60641;53.556;9.914;2023-01-06T00:55:30;15.70;;;4.00;;
71606;SDS011;60641;53.556;9.914;2023-01-06T00:57:57;17.40;;;4.90;;
71606;SDS011;60641;53.556;9.914;2023-01-06T01:00:23;13.60;;;4.00;;
71606;SDS011;60641;53.556;9.914;2023-01-06T01:02:50;13.30;;;4.30;;
71606;SDS011;60641;53.556;9.914;2023-01-06T01:05:16;13.20;;;3.90;;
71606;SDS011;60641;53.556;9.914;2023-01-06T01:07:43;15.40;;;4.00;;
71606;SDS011;60641;53.556;9.914;2023-01-06T01:10:09;13.80;;;5.00;;
71606;SDS011;60641;53.556;9.914;2023-01-06T01:12:36;13.30;;;4.60;;
71606;SDS011;60641;53.556;9.914;2023-01-06T01:15:02;10.80;;;4.00;;
71606;SDS011;60641;53.556;9.914;2023-01-06T01:17:30;13.00;;;4.60;;
71606;SDS011;60641;53.556;9.914;2023-01-06T01:19:57;13.80;;;4.90;;
71606;SDS011;60641;53.556;9.914;2023-01-06T01:22:25;11.60;;;4.30;;
71606;SDS011;60641;53.556;9.914;2023-01-06T01:24:53;11.00;;;4.10;;
71606;SDS011;60641;53.556;9.914;2023-01-06T01:27:19;12.90;;;4.70;;
71606;SDS011;60641;53.556;9.914;2023-01-06T01:29:46;10.50;;;4.30;;
71606;SDS011;60641;53.556;9.914;2023-01-06T01:32:12;11.00;;;4.40;;
71606;SDS011;60641;53.556;9.914;2023-01-06T01:34:39;10.90;;;4.70;;
71606;SDS011;60641;53.556;9.914;2023-01-06T01:37:05;11.80;;;4.10;;
71606;SDS011;60641;53.556;9.914;2023-01-06T01:39:31;11.30;;;3.00;;
71606;SDS011;60641;53.556;9.914;2023-01-06T01:41:58;13.30;;;4.30;;
71606;SDS011;60641;53.556;9.914;2023-01-06T01:47:27;10.40;;;3.70;;
71606;SDS011;60641;53.556;9.914;2023-01-06T01:52:56;9.90;;;3.90;;
71606;SDS011;60641;53.556;9.914;2023-01-06T01:55:43;9.30;;;3.70;;
71606;SDS011;60641;53.556;9.914;2023-01-06T01:58:20;10.50;;;4.10;;
71606;SDS011;60641;53.556;9.914;2023-01-06T02:00:49;9.60;;;4.10;;
71606;SDS011;60641;53.556;9.914;2023-01-06T02:03:16;11.60;;;4.30;;
71606;SDS011;60641;53.556;9.914;2023-01-06T02:05:46;10.60;;;4.10;;
71606;SDS011;60641;53.556;9.914;2023-01-06T02:08:37;9.10;;;3.90;;
71606;SDS011;60641;53.556;9.914;2023-01-06T02:11:07;10.10;;;3.90;;
71606;SDS011;60641;53.556;9.914;2023-01-06T02:13:35;10.10;;;3.90;;
71606;SDS011;60641;53.556;9.914;2023-01-06T02:16:26;11.30;;;4.20;;
71606;SDS011;60641;53.556;9.914;2023-01-06T02:28:09;11.00;;;4.20;;
71606;SDS011;60641;53.556;9.914;2023-01-06T02:40:14;8.10;;;3.90;;
71606;SDS011;60641;53.556;9.914;2023-01-06T02:43:09;9.60;;;4.00;;
71606;SDS011;60641;53.556;9.914;2023-01-06T02:48:24;9.60;;;3.70;;
71606;SDS011;60641;53.556;9.914;2023-01-06T02:53:42;8.50;;;3.70;;
71606;SDS011;60641;53.556;9.914;2023-01-06T02:56:18;9.30;;;4.20;;
71606;SDS011;60641;53.556;9.914;2023-01-06T02:58:48;9.40;;;4.30;;
71606;SDS011;60641;53.556;9.914;2023-01-06T03:01:25;9.90;;;4.70;;
71606;SDS011;60641;53.556;9.914;2023-01-06T03:03:54;8.60;;;4.00;;
71606;SDS011;60641;53.556;9.914;2023-01-06T03:06:26;8.70;;;4.10;;
71606;SDS011;60641;53.556;9.914;2023-01-06T03:08:55;9.80;;;4.00;;
71606;SDS011;60641;53.556;9.914;2023-01-06T03:11:23;10.70;;;4.50;;
71606;SDS011;60641;53.556;9.914;2023-01-06T03:16:22;11.30;;;5.10;;
71606;SDS011;60641;53.556;9.914;2023-01-06T03:18:49;11.00;;;4.70;;
71606;SDS011;60641;53.556;9.914;2023-01-06T03:21:17;11.60;;;5.30;;
71606;SDS011;60641;53.556;9.914;2023-01-06T03:23:46;11.40;;;4.90;;
71606;SDS011;60641;53.556;9.914;2023-01-06T03:26:12;12.10;;;4.90;;
71606;SDS011;60641;53.556;9.914;2023-01-06T03:28:39;12.40;;;5.00;;
71606;SDS011;60641;53.556;9.914;2023-01-06T03:33:53;15.70;;;5.80;;
71606;SDS011;60641;53.556;9.914;2023-01-06T03:41:32;14.90;;;6.10;;
71606;SDS011;60641;53.556;9.914;2023-01-06T03:47:32;17.60;;;7.60;;
71606;SDS011;60641;53.556;9.914;2023-01-06T03:50:04;14.50;;;6.80;;
71606;SDS011;60641;53.556;9.914;2023-01-06T03:52:36;15.80;;;6.90;;
71606;SDS011;60641;53.556;9.914;2023-01-06T03:55:10;17.30;;;7.50;;
71606;SDS011;60641;53.556;9.914;2023-01-06T03:57:41;17.70;;;7.90;;
71606;SDS011;60641;53.556;9.914;2023-01-06T04:00:20;17.00;;;7.80;;
71606;SDS011;60641;53.556;9.914;2023-01-06T04:02:49;15.10;;;6.90;;
71606;SDS011;60641;53.556;9.914;2023-01-06T04:05:20;17.80;;;8.20;;
71606;SDS011;60641;53.556;9.914;2023-01-06T04:07:48;16.70;;;7.70;;
71606;SDS011;60641;53.556;9.914;2023-01-06T04:10:21;16.20;;;7.60;;
71606;SDS011;60641;53.556;9.914;2023-01-06T04:12:48;18.10;;;7.90;;
71606;SDS011;60641;53.556;9.914;2023-01-06T04:15:18;16.90;;;7.20;;
71606;SDS011;60641;53.556;9.914;2023-01-06T04:17:47;15.60;;;7.60;;
71606;SDS011;60641;53.556;9.914;2023-01-06T04:20:15;18.30;;;8.20;;
71606;SDS011;60641;53.556;9.914;2023-01-06T04:22:43;16.60;;;8.00;;
71606;SDS011;60641;53.556;9.914;2023-01-06T04:25:09;16.50;;;7.20;;
71606;SDS011;60641;53.556;9.914;2023-01-06T04:27:36;14.40;;;7.20;;
71606;SDS011;60641;53.556;9.914;2023-01-06T04:30:03;18.30;;;7.20;;
71606;SDS011;60641;53.556;9.914;2023-01-06T04:32:30;19.30;;;8.60;;
71606;SDS011;60641;53.556;9.914;2023-01-06T04:34:57;18.40;;;7.80;;
71606;SDS011;60641;53.556;9.914;2023-01-06T04:37:23;15.30;;;7.50;;
71606;SDS011;60641;53.556;9.914;2023-01-06T04:39:50;18.70;;;8.80;;
71606;SDS011;60641;53.556;9.914;2023-01-06T04:42:16;18.20;;;8.10;;
71606;SDS011;60641;53.556;9.914;2023-01-06T04:44:43;18.10;;;7.60;;
71606;SDS011;60641;53.556;9.914;2023-01-06T04:47:09;16.70;;;8.30;;
71606;SDS011;60641;53.556;9.914;2023-01-06T04:49:36;17.20;;;7.40;;
71606;SDS011;60641;53.556;9.914;2023-01-06T04:52:02;14.80;;;7.30;;
71606;SDS011;60641;53.556;9.914;2023-01-06T04:54:29;16.60;;;7.50;;
71606;SDS011;60641;53.556;9.914;2023-01-06T04:56:56;16.90;;;7.90;;
71606;SDS011;60641;53.556;9.914;2023-01-06T04:59:22;17.00;;;8.60;;
71606;SDS011;60641;53.556;9.914;2023-01-06T05:01:49;16.90;;;7.80;;
71606;SDS011;60641;53.556;9.914;2023-01-06T05:04:15;18.00;;;8.40;;
71606;SDS011;60641;53.556;9.914;2023-01-06T05:06:42;15.00;;;6.80;;
71606;SDS011;60641;53.556;9.914;2023-01-06T05:09:08;17.10;;;7.90;;
71606;SDS011;60641;53.556;9.914;2023-01-06T05:11:35;19.80;;;7.80;;
71606;SDS011;60641;53.556;9.914;2023-01-06T05:14:01;17.20;;;7.60;;
71606;SDS011;60641;53.556;9.914;2023-01-06T05:16:29;18.40;;;7.80;;
71606;SDS011;60641;53.556;9.914;2023-01-06T05:18:57;16.20;;;7.00;;
71606;SDS011;60641;53.556;9.914;2023-01-06T05:21:27;15.40;;;7.60;;
71606;SDS011;60641;53.556;9.914;2023-01-06T05:23:55;16.30;;;7.10;;
71606;SDS011;60641;53.556;9.914;2023-01-06T05:26:23;14.40;;;7.20;;
71606;SDS011;60641;53.556;9.914;2023-01-06T05:28:51;15.50;;;7.00;;
71606;SDS011;60641;53.556;9.914;2023-01-06T05:31:18;16.00;;;7.50;;
71606;SDS011;60641;53.556;9.914;2023-01-06T05:33:44;14.70;;;6.90;;
71606;SDS011;60641;53.556;9.914;2023-01-06T05:36:12;20.00;;;6.90;;
71606;SDS011;60641;53.556;9.914;2023-01-06T05:38:40;17.30;;;7.90;;
71606;SDS011;60641;53.556;9.914;2023-01-06T05:41:07;15.70;;;7.00;;
71606;SDS011;60641;53.556;9.914;2023-01-06T05:43:34;13.20;;;7.00;;
71606;SDS011;60641;53.556;9.914;2023-01-06T05:46:08;13.80;;;6.30;;
71606;SDS011;60641;53.556;9.914;2023-01-06T05:48:35;15.20;;;6.60;;
71606;SDS011;60641;53.556;9.914;2023-01-06T05:51:03;14.00;;;7.00;;
71606;SDS011;60641;53.556;9.914;2023-01-06T05:53:35;14.90;;;6.90;;
71606;SDS011;60641;53.556;9.914;2023-01-06T05:56:04;13.20;;;5.40;;
71606;SDS011;60641;53.556;9.914;2023-01-06T05:58:31;13.50;;;5.80;;
71606;SDS011;60641;53.556;9.914;2023-01-06T06:01:00;15.10;;;6.20;;
71606;SDS011;60641;53.556;9.914;2023-01-06T06:03:27;13.50;;;6.30;;
71606;SDS011;60641;53.556;9.914;2023-01-06T06:05:53;11.40;;;5.50;;
71606;SDS011;60641;53.556;9.914;2023-01-06T06:08:23;11.90;;;5.60;;
71606;SDS011;60641;53.556;9.914;2023-01-06T06:10:49;15.00;;;6.30;;
71606;SDS011;60641;53.556;9.914;2023-01-06T06:13:15;14.30;;;6.60;;
71606;SDS011;60641;53.556;9.914;2023-01-06T06:15:42;12.80;;;6.60;;
71606;SDS011;60641;53.556;9.914;2023-01-06T06:18:08;12.50;;;6.60;;
71606;SDS011;60641;53.556;9.914;2023-01-06T06:20:35;13.50;;;6.60;;
71606;SDS011;60641;53.556;9.914;2023-01-06T06:23:01;13.10;;;7.20;;
71606;SDS011;60641;53.556;9.914;2023-01-06T06:25:27;13.40;;;7.30;;
71606;SDS011;60641;53.556;9.914;2023-01-06T06:27:57;15.90;;;7.20;;
71606;SDS011;60641;53.556;9.914;2023-01-06T06:30:24;13.00;;;6.90;;
71606;SDS011;60641;53.556;9.914;2023-01-06T06:32:51;11.60;;;7.60;;
71606;SDS011;60641;53.556;9.914;2023-01-06T06:35:17;14.90;;;7.40;;
71606;SDS011;60641;53.556;9.914;2023-01-06T06:37:44;11.90;;;7.10;;
71606;SDS011;60641;53.556;9.914;2023-01-06T06:40:10;14.40;;;8.10;;
71606;SDS011;60641;53.556;9.914;2023-01-06T06:42:37;16.50;;;8.00;;
71606;SDS011;60641;53.556;9.914;2023-01-06T06:45:04;13.00;;;7.40;;
71606;SDS011;60641;53.556;9.914;2023-01-06T06:47:30;13.20;;;7.40;;
71606;SDS011;60641;53.556;9.914;2023-01-06T06:49:57;15.50;;;7.90;;
71606;SDS011;60641;53.556;9.914;2023-01-06T06:52:23;14.00;;;7.80;;
71606;SDS011;60641;53.556;9.914;2023-01-06T06:54:50;14.20;;;8.50;;
71606;SDS011;60641;53.556;9.914;2023-01-06T06:57:16;16.30;;;7.80;;
71606;SDS011;60641;53.556;9.914;2023-01-06T06:59:42;14.80;;;7.50;;
71606;SDS011;60641;53.556;9.914;2023-01-06T07:02:09;13.60;;;7.80;;
71606;SDS011;60641;53.556;9.914;2023-01-06T07:04:35;15.60;;;8.40;;
71606;SDS011;60641;53.556;9.914;2023-01-06T07:07:02;15.40;;;8.50;;
71606;SDS011;60641;53.556;9.914;2023-01-06T07:09:28;14.10;;;7.80;;
71606;SDS011;60641;53.556;9.914;2023-01-06T07:11:54;13.90;;;7.40;;
71606;SDS011;60641;53.556;9.914;2023-01-06T07:14:21;14.30;;;7.20;;
71606;SDS011;60641;53.556;9.914;2023-01-06T07:16:47;12.10;;;7.00;;
71606;SDS011;60641;53.556;9.914;2023-01-06T07:19:14;11.10;;;6.60;;
71606;SDS011;60641;53.556;9.914;2023-01-06T07:21:40;11.30;;;6.70;;
71606;SDS011;60641;53.556;9.914;2023-01-06T07:24:07;13.10;;;6.60;;
71606;SDS011;60641;53.556;9.914;2023-01-06T07:26:33;11.50;;;7.20;;
71606;SDS011;60641;53.556;9.914;2023-01-06T07:28:59;11.90;;;6.90;;
71606;SDS011;60641;53.556;9.914;2023-01-06T07:31:26;12.50;;;6.50;;
71606;SDS011;60641;53.556;9.914;2023-01-06T07:33:52;11.40;;;6.30;;
71606;SDS011;60641;53.556;9.914;2023-01-06T07:36:19;10.70;;;5.60;;
71606;SDS011;60641;53.556;9.914;2023-01-06T07:38:45;10.00;;;5.60;;
71606;SDS011;60641;53.556;9.914;2023-01-06T07:41:12;10.10;;;5.60;;
71606;SDS011;60641;53.556;9.914;2023-01-06T07:43:38;13.00;;;6.10;;
71606;SDS011;60641;53.556;9.914;2023-01-06T07:46:04;10.00;;;5.50;;
71606;SDS011;60641;53.556;9.914;2023-01-06T07:48:31;11.40;;;6.00;;
71606;SDS011;60641;53.556;9.914;2023-01-06T07:50:57;11.00;;;5.40;;
71606;SDS011;60641;53.556;9.914;2023-01-06T07:53:24;11.30;;;6.00;;
71606;SDS011;60641;53.556;9.914;2023-01-06T07:55:51;10.90;;;5.30;;
71606;SDS011;60641;53.556;9.914;2023-01-06T07:58:18;10.20;;;5.50;;
71606;SDS011;60641;53.556;9.914;2023-01-06T08:00:45;11.50;;;5.50;;
71606;SDS011;60641;53.556;9.914;2023-01-06T08:03:12;10.90;;;5.70;;
71606;SDS011;60641;53.556;9.914;2023-01-06T08:05:39;8.30;;;4.70;;
71606;SDS011;60641;53.556;9.914;2023-01-06T08:08:07;11.20;;;5.10;;
71606;SDS011;60641;53.556;9.914;2023-01-06T08:10:37;9.70;;;5.30;;
71606;SDS011;60641;53.556;9.914;2023-01-06T08:13:04;9.20;;;5.20;;
71606;SDS011;60641;53.556;9.914;2023-01-06T08:15:31;9.80;;;4.70;;
71606;SDS011;60641;53.556;9.914;2023-01-06T08:17:57;8.80;;;4.40;;
71606;SDS011;60641;53.556;9.914;2023-01-06T08:20:24;9.40;;;4.80;;
71606;SDS011;60641;53.556;9.914;2023-01-06T08:22:50;8.40;;;4.20;;
71606;SDS011;60641;53.556;9.914;2023-01-06T08:25:16;9.30;;;4.40;;
71606;SDS011;60641;53.556;9.914;2023-01-06T08:27:43;10.00;;;4.10;;
71606;SDS011;60641;53.556;9.914;2023-01-06T08:30:10;8.80;;;3.60;;
71606;SDS011;60641;53.556;9.914;2023-01-06T08:32:36;8.90;;;4.60;;
71606;SDS011;60641;53.556;9.914;2023-01-06T08:35:03;8.60;;;4.20;;
71606;SDS011;60641;53.556;9.914;2023-01-06T08:37:30;9.10;;;3.80;;
71606;SDS011;60641;53.556;9.914;2023-01-06T08:39:56;9.40;;;3.40;;
71606;SDS011;60641;53.556;9.914;2023-01-06T08:42:22;8.40;;;3.90;;
71606;SDS011;60641;53.556;9.914;2023-01-06T08:44:49;7.50;;;3.60;;
71606;SDS011;60641;53.556;9.914;2023-01-06T08:47:15;9.00;;;3.10;;
71606;SDS011;60641;53.556;9.914;2023-01-06T08:49:42;7.10;;;3.30;;
71606;SDS011;60641;53.556;9.914;2023-01-06T08:52:08;8.20;;;3.20;;
71606;SDS011;60641;53.556;9.914;2023-01-06T08:54:35;7.60;;;3.40;;
71606;SDS011;60641;53.556;9.914;2023-01-06T08:57:01;8.30;;;3.00;;
71606;SDS011;60641;53.556;9.914;2023-01-06T08:59:28;8.60;;;3.40;;
71606;SDS011;60641;53.556;9.914;2023-01-06T09:01:54;8.70;;;2.80;;
71606;SDS011;60641;53.556;9.914;2023-01-06T09:04:21;7.40;;;3.10;;
71606;SDS011;60641;53.556;9.914;2023-01-06T09:06:49;7.60;;;3.10;;
71606;SDS011;60641;53.556;9.914;2023-01-06T09:09:15;8.00;;;2.90;;
71606;SDS011;60641;53.556;9.914;2023-01-06T09:11:42;6.40;;;2.80;;
71606;SDS011;60641;53.556;9.914;2023-01-06T09:14:10;7.70;;;3.00;;
71606;SDS011;60641;53.556;9.914;2023-01-06T09:16:39;7.60;;;2.60;;
71606;SDS011;60641;53.556;9.914;2023-01-06T09:19:05;6.20;;;2.40;;
71606;SDS011;60641;53.556;9.914;2023-01-06T09:21:32;6.10;;;2.50;;
71606;SDS011;60641;53.556;9.914;2023-01-06T09:23:58;7.40;;;3.10;;
71606;SDS011;60641;53.556;9.914;2023-01-06T09:26:24;7.20;;;2.60;;
71606;SDS011;60641;53.556;9.914;2023-01-06T09:28:51;7.60;;;2.70;;
71606;SDS011;60641;53.556;9.914;2023-01-06T09:31:17;5.90;;;2.30;;
71606;SDS011;60641;53.556;9.914;2023-01-06T09:33:44;7.30;;;2.40;;
71606;SDS011;60641;53.556;9.914;2023-01-06T09:36:11;6.70;;;2.40;;
71606;SDS011;60641;53.556;9.914;2023-01-06T09:38:37;6.40;;;2.20;;
71606;SDS011;60641;53.556;9.914;2023-01-06T09:46:20;7.40;;;2.00;;
71606;SDS011;60641;53.556;9.914;2023-01-06T09:51:58;7.60;;;2.00;;
71606;SDS011;60641;53.556;9.914;2023-01-06T09:57:03;6.60;;;2.00;;
71606;SDS011;60641;53.556;9.914;2023-01-06T10:02:16;5.90;;;2.40;;
71606;SDS011;60641;53.556;9.914;2023-01-06T10:04:47;4.70;;;1.70;;
71606;SDS011;60641;53.556;9.914;2023-01-06T10:20:38;4.50;;;1.40;;
71606;SDS011;60641;53.556;9.914;2023-01-06T10:23:26;6.10;;;1.80;;
71606;SDS011;60641;53.556;9.914;2023-01-06T10:26:44;4.20;;;1.70;;
71606;SDS011;60641;53.556;9.914;2023-01-06T10:28:53;7.70;;;2.00;;
71606;SDS011;60641;53.556;9.914;2023-01-06T10:31:23;5.40;;;1.90;;
71606;SDS011;60641;53.556;9.914;2023-01-06T10:33:53;4.80;;;1.80;;
71606;SDS011;60641;53.556;9.914;2023-01-06T10:37:04;5.00;;;2.00;;
71606;SDS011;60641;53.556;9.914;2023-01-06T10:39:17;5.60;;;1.80;;
71606;SDS011;60641;53.556;9.914;2023-01-06T10:41:49;5.40;;;1.70;;
71606;SDS011;60641;53.556;9.914;2023-01-06T10:44:19;3.80;;;1.60;;
71606;SDS011;60641;53.556;9.914;2023-01-06T10:46:45;5.30;;;1.70;;
71606;SDS011;60641;53.556;9.914;2023-01-06T10:49:16;6.00;;;2.30;;
71606;SDS011;60641;53.556;9.914;2023-01-06T10:51:47;4.60;;;1.80;;
71606;SDS011;60641;53.556;9.914;2023-01-06T10:54:17;4.30;;;1.50;;
71606;SDS011;60641;53.556;9.914;2023-01-06T10:56:48;3.20;;;1.60;;
71606;SDS011;60641;53.556;9.914;2023-01-06T10:59:18;5.10;;;2.00;;
71606;SDS011;60641;53.556;9.914;2023-01-06T11:04:15;4.40;;;1.80;;
71606;SDS011;60641;53.556;9.914;2023-01-06T11:09:25;3.60;;;1.30;;
71606;SDS011;60641;53.556;9.914;2023-01-06T11:11:56;4.70;;;1.20;;
71606;SDS011;60641;53.556;9.914;2023-01-06T11:14:27;2.70;;;0.80;;
71606;SDS011;60641;53.556;9.914;2023-01-06T11:16:59;2.70;;;0.60;;
71606;SDS011;60641;53.556;9.914;2023-01-06T11:22:01;3.80;;;0.90;;
71606;SDS011;60641;53.556;9.914;2023-01-06T11:24:28;3.50;;;0.70;;
71606;SDS011;60641;53.556;9.914;2023-01-06T11:27:01;5.20;;;0.60;;
71606;SDS011;60641;53.556;9.914;2023-01-06T11:29:42;3.10;;;0.50;;
71606;SDS011;60641;53.556;9.914;2023-01-06T11:32:12;7.20;;;0.70;;
71606;SDS011;60641;53.556;9.914;2023-01-06T11:34:42;5.60;;;1.70;;
71606;SDS011;60641;53.556;9.914;2023-01-06T11:37:34;3.20;;;0.70;;
71606;SDS011;60641;53.556;9.914;2023-01-06T11:40:03;3.60;;;0.60;;
71606;SDS011;60641;53.556;9.914;2023-01-06T11:42:42;3.20;;;0.50;;
71606;SDS011;60641;53.556;9.914;2023-01-06T11:45:26;4.40;;;1.00;;
71606;SDS011;60641;53.556;9.914;2023-01-06T11:47:54;3.10;;;0.40;;
71606;SDS011;60641;53.556;9.914;2023-01-06T11:50:21;5.00;;;0.50;;
71606;SDS011;60641;53.556;9.914;2023-01-06T11:52:58;4.20;;;0.60;;
71606;SDS011;60641;53.556;9.914;2023-01-06T11:55:28;5.40;;;0.60;;
71606;SDS011;60641;53.556;9.914;2023-01-06T11:57:59;4.20;;;0.80;;
71606;SDS011;60641;53.556;9.914;2023-01-06T12:03:24;2.90;;;0.60;;
71606;SDS011;60641;53.556;9.914;2023-01-06T12:08:46;5.10;;;0.70;;
71606;SDS011;60641;53.556;9.914;2023-01-06T12:13:44;4.20;;;0.50;;
71606;SDS011;60641;53.556;9.914;2023-01-06T12:16:12;5.30;;;0.70;;
71606;SDS011;60641;53.556;9.914;2023-01-06T12:18:54;2.50;;;0.50;;
71606;SDS011;60641;53.556;9.914;2023-01-06T12:21:24;4.50;;;0.70;;
71606;SDS011;60641;53.556;9.914;2023-01-06T12:23:53;3.70;;;0.70;;
71606;SDS011;60641;53.556;9.914;2023-01-06T12:26:22;6.50;;;1.00;;
71606;SDS011;60641;53.556;9.914;2023-01-06T12:28:51;3.20;;;0.70;;
71606;SDS011;60641;53.556;9.914;2023-01-06T12:31:23;4.30;;;0.60;;
71606;SDS011;60641;53.556;9.914;2023-01-06T12:36:27;2.90;;;0.50;;
71606;SDS011;60641;53.556;9.914;2023-01-06T12:39:04;3.70;;;0.60;;
71606;SDS011;60641;53.556;9.914;2023-01-06T12:53:02;6.90;;;0.70;;
71606;SDS011;60641;53.556;9.914;2023-01-06T12:55:43;3.60;;;0.60;;
71606;SDS011;60641;53.556;9.914;2023-01-06T13:03:26;3.50;;;0.50;;
71606;SDS011;60641;53.556;9.914;2023-01-06T13:11:15;3.10;;;0.40;;
71606;SDS011;60641;53.556;9.914;2023-01-06T13:21:32;4.90;;;1.10;;
71606;SDS011;60641;53.556;9.914;2023-01-06T13:35:43;7.70;;;1.00;;
71606;SDS011;60641;53.556;9.914;2023-01-06T13:41:15;16.60;;;2.20;;
71606;SDS011;60641;53.556;9.914;2023-01-06T13:43:44;12.90;;;2.30;;
71606;SDS011;60641;53.556;9.914;2023-01-06T13:46:13;9.40;;;1.80;;
71606;SDS011;60641;53.556;9.914;2023-01-06T13:48:52;9.20;;;1.40;;
71606;SDS011;60641;53.556;9.914;2023-01-06T13:51:21;9.50;;;2.30;;
71606;SDS011;60641;53.556;9.914;2023-01-06T13:53:49;7.80;;;1.20;;
71606;SDS011;60641;53.556;9.914;2023-01-06T13:58:48;5.00;;;0.80;;
71606;SDS011;60641;53.556;9.914;2023-01-06T14:03:49;5.80;;;1.30;;
71606;SDS011;60641;53.556;9.914;2023-01-06T14:08:50;4.50;;;0.80;;
71606;SDS011;60641;53.556;9.914;2023-01-06T14:11:20;5.50;;;0.90;;
71606;SDS011;60641;53.556;9.914;2023-01-06T14:13:52;6.10;;;1.50;;
71606;SDS011;60641;53.556;9.914;2023-01-06T14:16:20;8.10;;;0.80;;
71606;SDS011;60641;53.556;9.914;2023-01-06T14:18:49;6.70;;;0.90;;
71606;SDS011;60641;53.556;9.914;2023-01-06T14:21:19;6.40;;;1.00;;
71606;SDS011;60641;53.556;9.914;2023-01-06T14:26:42;5.90;;;0.90;;
71606;SDS011;60641;53.556;9.914;2023-01-06T14:37:28;5.30;;;0.70;;
71606;SDS011;60641;53.556;9.914;2023-01-06T14:40:00;7.00;;;0.80;;
71606;SDS011;60641;53.556;9.914;2023-01-06T14:42:28;4.90;;;0.80;;
71606;SDS011;60641;53.556;9.914;2023-01-06T14:45:00;4.20;;;0.50;;
71606;SDS011;60641;53.556;9.914;2023-01-06T14:50:06;3.80;;;0.70;;
71606;SDS011;60641;53.556;9.914;2023-01-06T14:52:38;7.30;;;0.80;;
71606;SDS011;60641;53.556;9.914;2023-01-06T14:55:08;8.50;;;0.80;;
71606;SDS011;60641;53.556;9.914;2023-01-06T14:57:36;6.30;;;0.60;;
71606;SDS011;60641;53.556;9.914;2023-01-06T15:02:53;4.00;;;0.60;;
71606;SDS011;60641;53.556;9.914;2023-01-06T15:05:28;4.10;;;0.70;;
71606;SDS011;60641;53.556;9.914;2023-01-06T15:10:34;4.90;;;0.70;;
71606;SDS011;60641;53.556;9.914;2023-01-06T15:13:17;5.80;;;0.80;;
71606;SDS011;60641;53.556;9.914;2023-01-06T15:15:45;8.00;;;1.00;;
71606;SDS011;60641;53.556;9.914;2023-01-06T15:18:18;5.60;;;0.80;;
71606;SDS011;60641;53.556;9.914;2023-01-06T15:20:44;5.40;;;0.70;;
71606;SDS011;60641;53.556;9.914;2023-01-06T15:23:14;6.30;;;0.70;;
71606;SDS011;60641;53.556;9.914;2023-01-06T15:25:46;7.90;;;1.00;;
71606;SDS011;60641;53.556;9.914;2023-01-06T15:28:27;7.30;;;0.80;;
71606;SDS011;60641;53.556;9.914;2023-01-06T15:30:54;5.20;;;0.70;;
71606;SDS011;60641;53.556;9.914;2023-01-06T15:33:22;6.90;;;0.80;;
71606;SDS011;60641;53.556;9.914;2023-01-06T15:35:50;7.20;;;0.80;;
71606;SDS011;60641;53.556;9.914;2023-01-06T15:38:23;4.80;;;0.60;;
71606;SDS011;60641;53.556;9.914;2023-01-06T15:40:51;6.40;;;0.70;;
71606;SDS011;60641;53.556;9.914;2023-01-06T15:43:18;6.00;;;0.80;;
71606;SDS011;60641;53.556;9.914;2023-01-06T15:48:33;6.60;;;0.50;;
71606;SDS011;60641;53.556;9.914;2023-01-06T15:51:08;5.00;;;0.60;;
71606;SDS011;60641;53.556;9.914;2023-01-06T15:53:38;8.90;;;0.80;;
71606;SDS011;60641;53.556;9.914;2023-01-06T15:56:05;7.90;;;0.80;;
71606;SDS011;60641;53.556;9.914;2023-01-06T15:58:36;10.50;;;3.30;;
71606;SDS011;60641;53.556;9.914;2023-01-06T16:03:36;9.50;;;1.40;;
71606;SDS011;60641;53.556;9.914;2023-01-06T16:08:32;5.90;;;1.10;;
71606;SDS011;60641;53.556;9.914;2023-01-06T16:14:04;8.10;;;0.90;;
71606;SDS011;60641;53.556;9.914;2023-01-06T16:16:32;7.50;;;0.90;;
71606;SDS011;60641;53.556;9.914;2023-01-06T16:19:07;8.40;;;1.10;;
71606;SDS011;60641;53.556;9.914;2023-01-06T16:21:35;9.20;;;1.20;;
71606;SDS011;60641;53.556;9.914;2023-01-06T16:24:04;7.10;;;1.10;;
71606;SDS011;60641;53.556;9.914;2023-01-06T16:26:32;7.90;;;1.20;;
71606;SDS011;60641;53.556;9.914;2023-01-06T16:29:00;9.60;;;1.40;;
71606;SDS011;60641;53.556;9.914;2023-01-06T16:37:00;7.60;;;1.20;;
71606;SDS011;60641;53.556;9.914;2023-01-06T16:39:29;6.50;;;1.20;;
71606;SDS011;60641;53.556;9.914;2023-01-06T16:44:28;5.60;;;1.00;;
71606;SDS011;60641;53.556;9.914;2023-01-06T16:46:56;10.80;;;1.40;;
71606;SDS011;60641;53.556;9.914;2023-01-06T16:49:27;6.10;;;1.10;;
71606;SDS011;60641;53.556;9.914;2023-01-06T16:51:55;8.00;;;1.10;;
71606;SDS011;60641;53.556;9.914;2023-01-06T16:54:21;6.70;;;1.10;;
71606;SDS011;60641;53.556;9.914;2023-01-06T16:56:48;8.00;;;1.40;;
71606;SDS011;60641;53.556;9.914;2023-01-06T16:59:17;6.20;;;1.30;;
71606;SDS011;60641;53.556;9.914;2023-01-06T17:01:45;8.60;;;1.20;;
71606;SDS011;60641;53.556;9.914;2023-01-06T17:04:12;11.20;;;1.80;;
71606;SDS011;60641;53.556;9.914;2023-01-06T17:06:40;5.70;;;1.30;;
71606;SDS011;60641;53.556;9.914;2023-01-06T17:09:19;8.40;;;1.40;;
71606;SDS011;60641;53.556;9.914;2023-01-06T17:11:47;7.30;;;1.30;;
71606;SDS011;60641;53.556;9.914;2023-01-06T17:14:15;7.00;;;1.80;;
71606;SDS011;60641;53.556;9.914;2023-01-06T17:16:44;8.40;;;1.50;;
71606;SDS011;60641;53.556;9.914;2023-01-06T17:21:47;8.80;;;1.50;;
71606;SDS011;60641;53.556;9.914;2023-01-06T17:24:18;8.50;;;1.70;;
71606;SDS011;60641;53.556;9.914;2023-01-06T17:26:49;11.00;;;1.80;;
71606;SDS011;60641;53.556;9.914;2023-01-06T17:29:17;6.10;;;1.20;;
71606;SDS011;60641;53.556;9.914;2023-01-06T17:31:49;11.10;;;1.70;;
71606;SDS011;60641;53.556;9.914;2023-01-06T17:36:44;8.80;;;1.90;;
71606;SDS011;60641;53.556;9.914;2023-01-06T17:39:22;8.50;;;1.80;;
71606;SDS011;60641;53.556;9.914;2023-01-06T17:41:58;10.40;;;2.40;;
71606;SDS011;60641;53.556;9.914;2023-01-06T17:44:33;8.50;;;1.20;;
71606;SDS011;60641;53.556;9.914;2023-01-06T17:47:01;8.30;;;1.70;;
71606;SDS011;60641;53.556;9.914;2023-01-06T17:49:32;7.50;;;1.30;;
71606;SDS011;60641;53.556;9.914;2023-01-06T17:52:11;7.70;;;1.40;;
71606;SDS011;60641;53.556;9.914;2023-01-06T17:54:41;8.90;;;1.30;;
71606;SDS011;60641;53.556;9.914;2023-01-06T17:57:28;8.80;;;1.30;;